sensor_id;sensor_type;location;lat;lon;timestamp;P1;durP1;ratioP1;P2;durP2;ratioP2
12818;SDS011;6474;53.474;9.894;2022-10-17T00:00:32;1.10;;;1.10;;
12818;SDS011;6474;53.474;9.894;2022-10-17T00:03:02;1.00;;;1.00;;
12818;SDS011;6474;53.474;9.894;2022-10-17T00:05:30;1.00;;;1.00;;
12818;SDS011;6474;53.474;9.894;2022-10-17T00:07:57;0.90;;;0.90;;
12818;SDS011;6474;53.474;9.894;2022-10-17T00:10:25;1.03;;;1.03;;
12818;SDS011;6474;53.474;9.894;2022-10-17T00:12:53;0.93;;;0.93;;
12818;SDS011;6474;53.474;9.894;2022-10-17T00:15:21;1.00;;;1.00;;
12818;SDS011;6474;53.474;9.894;2022-10-17T00:17:49;1.10;;;1.10;;
12818;SDS011;6474;53.474;9.894;2022-10-17T00:20:18;1.10;;;1.10;;
12818;SDS011;6474;53.474;9.894;2022-10-17T00:22:46;1.30;;;1.30;;
12818;SDS011;6474;53.474;9.894;2022-10-17T00:25:14;1.40;;;1.30;;
12818;SDS011;6474;53.474;9.894;2022-10-17T00:27:42;1.50;;;1.47;;
12818;SDS011;6474;53.474;9.894;2022-10-17T00:30:11;1.40;;;1.30;;
12818;SDS011;6474;53.474;9.894;2022-10-17T00:32:40;1.00;;;1.00;;
12818;SDS011;6474;53.474;9.894;2022-10-17T00:35:08;1.20;;;1.20;;
12818;SDS011;6474;53.474;9.894;2022-10-17T00:37:37;1.23;;;1.23;;
12818;SDS011;6474;53.474;9.894;2022-10-17T00:40:06;1.17;;;1.17;;
12818;SDS011;6474;53.474;9.894;2022-10-17T00:42:34;0.77;;;0.77;;
12818;SDS011;6474;53.474;9.894;2022-10-17T00:45:05;1.00;;;1.00;;
12818;SDS011;6474;53.474;9.894;2022-10-17T00:47:44;0.77;;;0.77;;
12818;SDS011;6474;53.474;9.894;2022-10-17T00:50:16;4.10;;;1.33;;
12818;SDS011;6474;53.474;9.894;2022-10-17T00:52:46;0.90;;;0.90;;
12818;SDS011;6474;53.474;9.894;2022-10-17T00:55:17;0.83;;;0.83;;
12818;SDS011;6474;53.474;9.894;2022-10-17T00:57:49;1.00;;;1.00;;
12818;SDS011;6474;53.474;9.894;2022-10-17T01:00:18;1.10;;;1.10;;
12818;SDS011;6474;53.474;9.894;2022-10-17T01:02:47;1.33;;;1.23;;
12818;SDS011;6474;53.474;9.894;2022-10-17T01:05:15;2.20;;;1.50;;
12818;SDS011;6474;53.474;9.894;2022-10-17T01:07:44;3.13;;;1.10;;
12818;SDS011;6474;53.474;9.894;2022-10-17T01:10:15;1.13;;;1.13;;
12818;SDS011;6474;53.474;9.894;2022-10-17T01:12:47;1.43;;;1.30;;
12818;SDS011;6474;53.474;9.894;2022-10-17T01:15:27;1.20;;;1.20;;
12818;SDS011;6474;53.474;9.894;2022-10-17T01:18:05;1.30;;;1.30;;
12818;SDS011;6474;53.474;9.894;2022-10-17T01:20:44;1.23;;;1.23;;
12818;SDS011;6474;53.474;9.894;2022-10-17T01:26:53;1.40;;;1.40;;
12818;SDS011;6474;53.474;9.894;2022-10-17T01:29:52;1.40;;;1.40;;
12818;SDS011;6474;53.474;9.894;2022-10-17T01:32:34;1.43;;;1.43;;
12818;SDS011;6474;53.474;9.894;2022-10-17T01:35:07;1.40;;;1.40;;
12818;SDS011;6474;53.474;9.894;2022-10-17T01:37:39;1.53;;;1.53;;
12818;SDS011;6474;53.474;9.894;2022-10-17T01:40:14;1.73;;;1.73;;
12818;SDS011;6474;53.474;9.894;2022-10-17T01:42:50;1.37;;;1.37;;
12818;SDS011;6474;53.474;9.894;2022-10-17T01:45:23;1.50;;;1.40;;
12818;SDS011;6474;53.474;9.894;2022-10-17T01:48:01;1.67;;;1.67;;
12818;SDS011;6474;53.474;9.894;2022-10-17T01:50:34;1.70;;;1.70;;
12818;SDS011;6474;53.474;9.894;2022-10-17T01:53:07;1.77;;;1.67;;
12818;SDS011;6474;53.474;9.894;2022-10-17T01:55:40;1.50;;;1.50;;
12818;SDS011;6474;53.474;9.894;2022-10-17T01:58:11;1.43;;;1.43;;
12818;SDS011;6474;53.474;9.894;2022-10-17T02:00:44;1.20;;;1.20;;
12818;SDS011;6474;53.474;9.894;2022-10-17T02:03:16;1.30;;;1.30;;
12818;SDS011;6474;53.474;9.894;2022-10-17T02:05:46;1.90;;;1.80;;
12818;SDS011;6474;53.474;9.894;2022-10-17T02:08:23;1.57;;;1.57;;
12818;SDS011;6474;53.474;9.894;2022-10-17T02:10:53;1.70;;;1.60;;
12818;SDS011;6474;53.474;9.894;2022-10-17T02:13:26;1.50;;;1.50;;
12818;SDS011;6474;53.474;9.894;2022-10-17T02:16:08;1.20;;;1.20;;
12818;SDS011;6474;53.474;9.894;2022-10-17T02:18:56;1.50;;;1.50;;
12818;SDS011;6474;53.474;9.894;2022-10-17T02:21:37;1.63;;;1.53;;
12818;SDS011;6474;53.474;9.894;2022-10-17T02:24:14;1.30;;;1.30;;
12818;SDS011;6474;53.474;9.894;2022-10-17T02:26:51;1.80;;;1.70;;
12818;SDS011;6474;53.474;9.894;2022-10-17T02:29:26;1.60;;;1.53;;
12818;SDS011;6474;53.474;9.894;2022-10-17T02:31:59;4.57;;;1.37;;
12818;SDS011;6474;53.474;9.894;2022-10-17T02:34:36;1.27;;;1.27;;
12818;SDS011;6474;53.474;9.894;2022-10-17T02:37:07;1.43;;;1.43;;
12818;SDS011;6474;53.474;9.894;2022-10-17T02:39:37;1.63;;;1.63;;
12818;SDS011;6474;53.474;9.894;2022-10-17T02:42:08;1.63;;;1.63;;
12818;SDS011;6474;53.474;9.894;2022-10-17T02:44:38;1.40;;;1.40;;
12818;SDS011;6474;53.474;9.894;2022-10-17T02:47:10;1.80;;;1.70;;
12818;SDS011;6474;53.474;9.894;2022-10-17T02:49:46;1.20;;;1.20;;
12818;SDS011;6474;53.474;9.894;2022-10-17T02:52:19;1.50;;;1.50;;
12818;SDS011;6474;53.474;9.894;2022-10-17T02:54:56;1.40;;;1.40;;
12818;SDS011;6474;53.474;9.894;2022-10-17T02:57:27;1.37;;;1.37;;
12818;SDS011;6474;53.474;9.894;2022-10-17T03:00:03;1.30;;;1.30;;
12818;SDS011;6474;53.474;9.894;2022-10-17T03:02:37;1.30;;;1.30;;
12818;SDS011;6474;53.474;9.894;2022-10-17T03:05:08;1.50;;;1.50;;
12818;SDS011;6474;53.474;9.894;2022-10-17T03:07:37;1.40;;;1.40;;
12818;SDS011;6474;53.474;9.894;2022-10-17T03:10:05;1.20;;;1.20;;
12818;SDS011;6474;53.474;9.894;2022-10-17T03:12:33;1.20;;;1.20;;
12818;SDS011;6474;53.474;9.894;2022-10-17T03:15:01;1.50;;;1.50;;
12818;SDS011;6474;53.474;9.894;2022-10-17T03:17:29;1.40;;;1.40;;
12818;SDS011;6474;53.474;9.894;2022-10-17T03:19:57;6.17;;;1.63;;
12818;SDS011;6474;53.474;9.894;2022-10-17T03:22:26;1.63;;;1.63;;
12818;SDS011;6474;53.474;9.894;2022-10-17T03:24:55;1.20;;;1.20;;
12818;SDS011;6474;53.474;9.894;2022-10-17T03:27:22;1.33;;;1.33;;
12818;SDS011;6474;53.474;9.894;2022-10-17T03:29:50;1.53;;;1.53;;
12818;SDS011;6474;53.474;9.894;2022-10-17T03:32:18;1.43;;;1.43;;
12818;SDS011;6474;53.474;9.894;2022-10-17T03:34:45;1.53;;;1.50;;
12818;SDS011;6474;53.474;9.894;2022-10-17T03:37:13;1.20;;;1.20;;
12818;SDS011;6474;53.474;9.894;2022-10-17T03:39:42;1.30;;;1.30;;
12818;SDS011;6474;53.474;9.894;2022-10-17T03:42:10;1.30;;;1.30;;
12818;SDS011;6474;53.474;9.894;2022-10-17T03:44:38;2.13;;;2.03;;
12818;SDS011;6474;53.474;9.894;2022-10-17T03:47:06;1.20;;;1.20;;
12818;SDS011;6474;53.474;9.894;2022-10-17T03:49:38;1.20;;;1.20;;
12818;SDS011;6474;53.474;9.894;2022-10-17T03:52:09;1.60;;;1.60;;
12818;SDS011;6474;53.474;9.894;2022-10-17T03:54:37;1.73;;;1.73;;
12818;SDS011;6474;53.474;9.894;2022-10-17T03:57:06;1.43;;;1.43;;
12818;SDS011;6474;53.474;9.894;2022-10-17T03:59:34;1.00;;;1.00;;
12818;SDS011;6474;53.474;9.894;2022-10-17T04:02:02;1.20;;;1.20;;
12818;SDS011;6474;53.474;9.894;2022-10-17T04:04:29;1.00;;;1.00;;
12818;SDS011;6474;53.474;9.894;2022-10-17T04:06:57;1.40;;;1.40;;
12818;SDS011;6474;53.474;9.894;2022-10-17T04:09:25;1.50;;;1.50;;
12818;SDS011;6474;53.474;9.894;2022-10-17T04:11:53;1.43;;;1.43;;
12818;SDS011;6474;53.474;9.894;2022-10-17T04:14:22;2.50;;;1.40;;
12818;SDS011;6474;53.474;9.894;2022-10-17T04:16:49;1.03;;;1.03;;
12818;SDS011;6474;53.474;9.894;2022-10-17T04:19:18;1.30;;;1.30;;
12818;SDS011;6474;53.474;9.894;2022-10-17T04:21:46;1.30;;;1.30;;
12818;SDS011;6474;53.474;9.894;2022-10-17T04:24:14;1.37;;;1.37;;
12818;SDS011;6474;53.474;9.894;2022-10-17T04:26:42;3.17;;;1.40;;
12818;SDS011;6474;53.474;9.894;2022-10-17T04:29:10;1.23;;;1.23;;
12818;SDS011;6474;53.474;9.894;2022-10-17T04:31:39;1.37;;;1.37;;
12818;SDS011;6474;53.474;9.894;2022-10-17T04:34:07;1.40;;;1.40;;
12818;SDS011;6474;53.474;9.894;2022-10-17T04:36:35;1.00;;;1.00;;
12818;SDS011;6474;53.474;9.894;2022-10-17T04:39:03;1.20;;;1.20;;
12818;SDS011;6474;53.474;9.894;2022-10-17T04:41:31;1.33;;;1.33;;
12818;SDS011;6474;53.474;9.894;2022-10-17T04:43:58;1.50;;;1.50;;
12818;SDS011;6474;53.474;9.894;2022-10-17T04:46:26;1.33;;;1.33;;
12818;SDS011;6474;53.474;9.894;2022-10-17T04:48:55;1.50;;;1.40;;
12818;SDS011;6474;53.474;9.894;2022-10-17T04:51:23;1.23;;;1.23;;
12818;SDS011;6474;53.474;9.894;2022-10-17T04:53:51;1.30;;;1.30;;
12818;SDS011;6474;53.474;9.894;2022-10-17T04:56:20;1.60;;;1.60;;
12818;SDS011;6474;53.474;9.894;2022-10-17T04:58:50;5.70;;;1.37;;
12818;SDS011;6474;53.474;9.894;2022-10-17T05:01:18;1.57;;;1.57;;
12818;SDS011;6474;53.474;9.894;2022-10-17T05:03:47;1.20;;;1.20;;
12818;SDS011;6474;53.474;9.894;2022-10-17T05:06:17;1.47;;;1.47;;
12818;SDS011;6474;53.474;9.894;2022-10-17T05:08:47;1.47;;;1.47;;
12818;SDS011;6474;53.474;9.894;2022-10-17T05:11:16;1.20;;;1.20;;
12818;SDS011;6474;53.474;9.894;2022-10-17T05:13:48;1.80;;;1.70;;
12818;SDS011;6474;53.474;9.894;2022-10-17T05:16:17;1.37;;;1.37;;
12818;SDS011;6474;53.474;9.894;2022-10-17T05:18:49;1.50;;;1.50;;
12818;SDS011;6474;53.474;9.894;2022-10-17T05:21:20;1.53;;;1.53;;
12818;SDS011;6474;53.474;9.894;2022-10-17T05:23:48;1.60;;;1.60;;
12818;SDS011;6474;53.474;9.894;2022-10-17T05:26:17;1.40;;;1.40;;
12818;SDS011;6474;53.474;9.894;2022-10-17T05:28:45;1.80;;;1.80;;
12818;SDS011;6474;53.474;9.894;2022-10-17T05:31:13;1.33;;;1.33;;
12818;SDS011;6474;53.474;9.894;2022-10-17T05:33:41;1.40;;;1.40;;
12818;SDS011;6474;53.474;9.894;2022-10-17T05:36:09;1.50;;;1.50;;
12818;SDS011;6474;53.474;9.894;2022-10-17T05:38:38;1.80;;;1.80;;
12818;SDS011;6474;53.474;9.894;2022-10-17T05:41:06;1.37;;;1.37;;
12818;SDS011;6474;53.474;9.894;2022-10-17T05:43:36;1.77;;;1.67;;
12818;SDS011;6474;53.474;9.894;2022-10-17T05:46:03;1.60;;;1.60;;
12818;SDS011;6474;53.474;9.894;2022-10-17T05:48:32;1.87;;;1.70;;
12818;SDS011;6474;53.474;9.894;2022-10-17T05:51:01;1.50;;;1.50;;
12818;SDS011;6474;53.474;9.894;2022-10-17T05:53:30;2.10;;;2.00;;
12818;SDS011;6474;53.474;9.894;2022-10-17T05:56:01;1.53;;;1.53;;
12818;SDS011;6474;53.474;9.894;2022-10-17T05:58:31;1.90;;;1.90;;
12818;SDS011;6474;53.474;9.894;2022-10-17T06:01:19;2.13;;;2.10;;
12818;SDS011;6474;53.474;9.894;2022-10-17T06:03:47;2.40;;;2.30;;
12818;SDS011;6474;53.474;9.894;2022-10-17T06:06:14;2.13;;;2.13;;
12818;SDS011;6474;53.474;9.894;2022-10-17T06:08:43;2.03;;;1.83;;
12818;SDS011;6474;53.474;9.894;2022-10-17T06:11:13;2.10;;;2.00;;
12818;SDS011;6474;53.474;9.894;2022-10-17T06:13:41;1.70;;;1.70;;
12818;SDS011;6474;53.474;9.894;2022-10-17T06:16:09;1.70;;;1.70;;
12818;SDS011;6474;53.474;9.894;2022-10-17T06:18:37;1.40;;;1.40;;
12818;SDS011;6474;53.474;9.894;2022-10-17T06:21:05;2.03;;;1.93;;
12818;SDS011;6474;53.474;9.894;2022-10-17T06:23:34;2.00;;;1.90;;
12818;SDS011;6474;53.474;9.894;2022-10-17T06:26:03;1.67;;;1.67;;
12818;SDS011;6474;53.474;9.894;2022-10-17T06:28:33;1.40;;;1.40;;
12818;SDS011;6474;53.474;9.894;2022-10-17T06:31:03;2.10;;;2.00;;
12818;SDS011;6474;53.474;9.894;2022-10-17T06:33:31;1.63;;;1.63;;
12818;SDS011;6474;53.474;9.894;2022-10-17T06:35:59;1.67;;;1.67;;
12818;SDS011;6474;53.474;9.894;2022-10-17T06:38:27;1.40;;;1.40;;
12818;SDS011;6474;53.474;9.894;2022-10-17T06:41:01;1.93;;;1.93;;
12818;SDS011;6474;53.474;9.894;2022-10-17T06:43:30;2.40;;;1.63;;
12818;SDS011;6474;53.474;9.894;2022-10-17T06:45:59;1.87;;;1.87;;
12818;SDS011;6474;53.474;9.894;2022-10-17T06:48:27;2.20;;;2.10;;
12818;SDS011;6474;53.474;9.894;2022-10-17T06:50:57;3.27;;;2.07;;
12818;SDS011;6474;53.474;9.894;2022-10-17T06:53:26;1.80;;;1.80;;
12818;SDS011;6474;53.474;9.894;2022-10-17T06:55:54;1.80;;;1.70;;
12818;SDS011;6474;53.474;9.894;2022-10-17T06:58:26;1.40;;;1.40;;
12818;SDS011;6474;53.474;9.894;2022-10-17T07:00:57;1.40;;;1.40;;
12818;SDS011;6474;53.474;9.894;2022-10-17T07:03:27;1.10;;;1.10;;
12818;SDS011;6474;53.474;9.894;2022-10-17T07:05:55;2.20;;;1.57;;
12818;SDS011;6474;53.474;9.894;2022-10-17T07:08:24;1.43;;;1.43;;
12818;SDS011;6474;53.474;9.894;2022-10-17T07:10:53;1.50;;;1.50;;
12818;SDS011;6474;53.474;9.894;2022-10-17T07:13:21;1.07;;;1.07;;
12818;SDS011;6474;53.474;9.894;2022-10-17T07:15:49;1.60;;;1.60;;
12818;SDS011;6474;53.474;9.894;2022-10-17T07:18:18;1.60;;;1.50;;
12818;SDS011;6474;53.474;9.894;2022-10-17T07:20:51;1.20;;;1.20;;
12818;SDS011;6474;53.474;9.894;2022-10-17T07:23:19;1.20;;;1.20;;
12818;SDS011;6474;53.474;9.894;2022-10-17T07:25:47;1.30;;;1.30;;
12818;SDS011;6474;53.474;9.894;2022-10-17T07:28:15;1.00;;;1.00;;
12818;SDS011;6474;53.474;9.894;2022-10-17T07:30:43;0.80;;;0.80;;
12818;SDS011;6474;53.474;9.894;2022-10-17T07:33:15;1.27;;;1.27;;
12818;SDS011;6474;53.474;9.894;2022-10-17T07:35:45;1.00;;;1.00;;
12818;SDS011;6474;53.474;9.894;2022-10-17T07:38:12;1.10;;;1.10;;
12818;SDS011;6474;53.474;9.894;2022-10-17T07:40:40;1.00;;;1.00;;
12818;SDS011;6474;53.474;9.894;2022-10-17T07:43:08;1.27;;;1.27;;
12818;SDS011;6474;53.474;9.894;2022-10-17T07:45:36;1.70;;;1.40;;
12818;SDS011;6474;53.474;9.894;2022-10-17T07:48:04;1.30;;;1.30;;
12818;SDS011;6474;53.474;9.894;2022-10-17T07:50:31;1.33;;;1.33;;
12818;SDS011;6474;53.474;9.894;2022-10-17T07:53:01;1.13;;;1.13;;
12818;SDS011;6474;53.474;9.894;2022-10-17T07:55:28;1.00;;;1.00;;
12818;SDS011;6474;53.474;9.894;2022-10-17T07:57:56;0.70;;;0.70;;
12818;SDS011;6474;53.474;9.894;2022-10-17T08:00:25;1.03;;;1.03;;
12818;SDS011;6474;53.474;9.894;2022-10-17T08:02:53;0.97;;;0.97;;
12818;SDS011;6474;53.474;9.894;2022-10-17T08:05:21;1.00;;;1.00;;
12818;SDS011;6474;53.474;9.894;2022-10-17T08:07:49;0.90;;;0.90;;
12818;SDS011;6474;53.474;9.894;2022-10-17T08:10:18;0.80;;;0.80;;
12818;SDS011;6474;53.474;9.894;2022-10-17T08:12:46;0.93;;;0.93;;
12818;SDS011;6474;53.474;9.894;2022-10-17T08:15:14;1.00;;;1.00;;
12818;SDS011;6474;53.474;9.894;2022-10-17T08:17:42;1.00;;;1.00;;
12818;SDS011;6474;53.474;9.894;2022-10-17T08:20:10;1.00;;;1.00;;
12818;SDS011;6474;53.474;9.894;2022-10-17T08:22:38;1.00;;;1.00;;
12818;SDS011;6474;53.474;9.894;2022-10-17T08:25:06;1.47;;;1.47;;
12818;SDS011;6474;53.474;9.894;2022-10-17T08:27:36;1.00;;;1.00;;
12818;SDS011;6474;53.474;9.894;2022-10-17T08:30:05;1.30;;;1.30;;
12818;SDS011;6474;53.474;9.894;2022-10-17T08:32:33;1.00;;;1.00;;
12818;SDS011;6474;53.474;9.894;2022-10-17T08:35:01;0.90;;;0.90;;
12818;SDS011;6474;53.474;9.894;2022-10-17T08:37:29;0.70;;;0.70;;
12818;SDS011;6474;53.474;9.894;2022-10-17T08:39:58;0.87;;;0.87;;
12818;SDS011;6474;53.474;9.894;2022-10-17T08:42:29;1.20;;;1.20;;
12818;SDS011;6474;53.474;9.894;2022-10-17T08:45:13;0.87;;;0.87;;
12818;SDS011;6474;53.474;9.894;2022-10-17T08:47:45;1.00;;;1.00;;
12818;SDS011;6474;53.474;9.894;2022-10-17T08:50:17;1.07;;;1.07;;
12818;SDS011;6474;53.474;9.894;2022-10-17T08:52:52;1.27;;;1.23;;
12818;SDS011;6474;53.474;9.894;2022-10-17T08:55:27;1.27;;;1.27;;
12818;SDS011;6474;53.474;9.894;2022-10-17T08:57:59;0.80;;;0.80;;
12818;SDS011;6474;53.474;9.894;2022-10-17T09:00:28;0.90;;;0.90;;
12818;SDS011;6474;53.474;9.894;2022-10-17T09:03:02;1.07;;;1.07;;
12818;SDS011;6474;53.474;9.894;2022-10-17T09:05:43;0.90;;;0.90;;
12818;SDS011;6474;53.474;9.894;2022-10-17T09:08:20;0.97;;;0.97;;
12818;SDS011;6474;53.474;9.894;2022-10-17T09:11:01;0.90;;;0.90;;
12818;SDS011;6474;53.474;9.894;2022-10-17T09:13:48;0.60;;;0.60;;
12818;SDS011;6474;53.474;9.894;2022-10-17T09:16:35;0.75;;;0.75;;
12818;SDS011;6474;53.474;9.894;2022-10-17T09:19:19;0.93;;;0.93;;
12818;SDS011;6474;53.474;9.894;2022-10-17T09:21:51;0.90;;;0.90;;
12818;SDS011;6474;53.474;9.894;2022-10-17T09:24:25;1.15;;;1.15;;
12818;SDS011;6474;53.474;9.894;2022-10-17T09:26:59;1.13;;;1.13;;
12818;SDS011;6474;53.474;9.894;2022-10-17T09:29:28;1.13;;;1.13;;
12818;SDS011;6474;53.474;9.894;2022-10-17T09:32:09;1.00;;;1.00;;
12818;SDS011;6474;53.474;9.894;2022-10-17T09:34:41;0.90;;;0.90;;
12818;SDS011;6474;53.474;9.894;2022-10-17T09:37:10;0.90;;;0.90;;
12818;SDS011;6474;53.474;9.894;2022-10-17T09:39:40;1.30;;;1.30;;
12818;SDS011;6474;53.474;9.894;2022-10-17T09:42:11;1.13;;;1.13;;
12818;SDS011;6474;53.474;9.894;2022-10-17T09:44:43;1.00;;;1.00;;
12818;SDS011;6474;53.474;9.894;2022-10-17T09:47:21;0.90;;;0.90;;
12818;SDS011;6474;53.474;9.894;2022-10-17T09:49:53;0.70;;;0.70;;
12818;SDS011;6474;53.474;9.894;2022-10-17T09:52:24;1.10;;;1.10;;
12818;SDS011;6474;53.474;9.894;2022-10-17T09:54:56;0.90;;;0.90;;
12818;SDS011;6474;53.474;9.894;2022-10-17T09:57:27;0.88;;;0.88;;
12818;SDS011;6474;53.474;9.894;2022-10-17T09:59:56;1.10;;;1.10;;
12818;SDS011;6474;53.474;9.894;2022-10-17T10:02:27;0.98;;;0.98;;
12818;SDS011;6474;53.474;9.894;2022-10-17T10:05:00;1.42;;;1.33;;
12818;SDS011;6474;53.474;9.894;2022-10-17T10:07:32;0.93;;;0.93;;
12818;SDS011;6474;53.474;9.894;2022-10-17T10:10:02;1.00;;;1.00;;
12818;SDS011;6474;53.474;9.894;2022-10-17T10:12:33;1.10;;;1.10;;
12818;SDS011;6474;53.474;9.894;2022-10-17T10:15:22;1.20;;;1.20;;
12818;SDS011;6474;53.474;9.894;2022-10-17T10:17:59;1.35;;;1.35;;
12818;SDS011;6474;53.474;9.894;2022-10-17T10:20:29;0.90;;;0.90;;
12818;SDS011;6474;53.474;9.894;2022-10-17T10:23:08;1.00;;;1.00;;
12818;SDS011;6474;53.474;9.894;2022-10-17T10:25:47;1.08;;;1.08;;
12818;SDS011;6474;53.474;9.894;2022-10-17T10:28:19;0.70;;;0.70;;
12818;SDS011;6474;53.474;9.894;2022-10-17T10:30:51;1.30;;;1.30;;
12818;SDS011;6474;53.474;9.894;2022-10-17T10:33:24;1.15;;;1.15;;
12818;SDS011;6474;53.474;9.894;2022-10-17T10:35:56;1.15;;;1.15;;
12818;SDS011;6474;53.474;9.894;2022-10-17T10:38:27;1.15;;;1.15;;
12818;SDS011;6474;53.474;9.894;2022-10-17T10:40:56;1.23;;;1.20;;
12818;SDS011;6474;53.474;9.894;2022-10-17T10:43:30;1.20;;;1.20;;
12818;SDS011;6474;53.474;9.894;2022-10-17T10:46:01;0.98;;;0.98;;
12818;SDS011;6474;53.474;9.894;2022-10-17T10:48:34;1.25;;;1.25;;
12818;SDS011;6474;53.474;9.894;2022-10-17T10:51:04;1.15;;;1.08;;
12818;SDS011;6474;53.474;9.894;2022-10-17T10:53:40;1.42;;;1.42;;
12818;SDS011;6474;53.474;9.894;2022-10-17T10:56:13;1.10;;;1.10;;
12818;SDS011;6474;53.474;9.894;2022-10-17T10:58:47;0.90;;;0.90;;
12818;SDS011;6474;53.474;9.894;2022-10-17T11:01:21;1.17;;;1.17;;
12818;SDS011;6474;53.474;9.894;2022-10-17T11:04:00;1.00;;;1.00;;
12818;SDS011;6474;53.474;9.894;2022-10-17T11:06:35;2.08;;;1.30;;
12818;SDS011;6474;53.474;9.894;2022-10-17T11:09:11;1.30;;;1.20;;
12818;SDS011;6474;53.474;9.894;2022-10-17T11:11:46;1.20;;;1.20;;
12818;SDS011;6474;53.474;9.894;2022-10-17T11:14:20;1.10;;;1.10;;
12818;SDS011;6474;53.474;9.894;2022-10-17T11:17:00;1.10;;;1.10;;
12818;SDS011;6474;53.474;9.894;2022-10-17T11:19:35;0.90;;;0.90;;
12818;SDS011;6474;53.474;9.894;2022-10-17T11:22:07;1.00;;;1.00;;
12818;SDS011;6474;53.474;9.894;2022-10-17T11:24:42;0.70;;;0.70;;
12818;SDS011;6474;53.474;9.894;2022-10-17T11:27:15;1.20;;;1.20;;
12818;SDS011;6474;53.474;9.894;2022-10-17T11:29:42;3.60;;;1.10;;
12818;SDS011;6474;53.474;9.894;2022-10-17T11:32:14;1.05;;;1.05;;
12818;SDS011;6474;53.474;9.894;2022-10-17T11:34:47;1.30;;;1.30;;
12818;SDS011;6474;53.474;9.894;2022-10-17T11:37:20;1.25;;;1.17;;
12818;SDS011;6474;53.474;9.894;2022-10-17T11:39:53;1.10;;;1.10;;
12818;SDS011;6474;53.474;9.894;2022-10-17T11:42:24;1.00;;;1.00;;
12818;SDS011;6474;53.474;9.894;2022-10-17T11:44:57;1.35;;;1.35;;
12818;SDS011;6474;53.474;9.894;2022-10-17T11:47:31;0.98;;;0.98;;
12818;SDS011;6474;53.474;9.894;2022-10-17T11:50:11;1.08;;;1.08;;
12818;SDS011;6474;53.474;9.894;2022-10-17T11:53:07;1.08;;;1.08;;
12818;SDS011;6474;53.474;9.894;2022-10-17T11:55:39;1.23;;;1.23;;
12818;SDS011;6474;53.474;9.894;2022-10-17T11:58:21;1.10;;;1.10;;
12818;SDS011;6474;53.474;9.894;2022-10-17T12:00:59;1.33;;;1.33;;
12818;SDS011;6474;53.474;9.894;2022-10-17T12:03:41;1.20;;;1.20;;
12818;SDS011;6474;53.474;9.894;2022-10-17T12:06:23;1.27;;;1.17;;
12818;SDS011;6474;53.474;9.894;2022-10-17T12:09:01;1.08;;;1.08;;
12818;SDS011;6474;53.474;9.894;2022-10-17T12:11:38;1.40;;;1.40;;
12818;SDS011;6474;53.474;9.894;2022-10-17T12:17:03;1.15;;;1.15;;
12818;SDS011;6474;53.474;9.894;2022-10-17T12:19:32;1.10;;;1.10;;
12818;SDS011;6474;53.474;9.894;2022-10-17T12:22:16;1.27;;;1.20;;
12818;SDS011;6474;53.474;9.894;2022-10-17T12:24:53;1.17;;;1.17;;
12818;SDS011;6474;53.474;9.894;2022-10-17T12:27:29;1.30;;;1.30;;
12818;SDS011;6474;53.474;9.894;2022-10-17T12:30:19;1.25;;;1.25;;
12818;SDS011;6474;53.474;9.894;2022-10-17T12:32:53;1.20;;;1.20;;
12818;SDS011;6474;53.474;9.894;2022-10-17T12:35:34;1.33;;;1.33;;
12818;SDS011;6474;53.474;9.894;2022-10-17T12:40:56;1.45;;;1.45;;
12818;SDS011;6474;53.474;9.894;2022-10-17T12:49:35;1.42;;;1.42;;
12818;SDS011;6474;53.474;9.894;2022-10-17T12:52:12;1.42;;;1.42;;
12818;SDS011;6474;53.474;9.894;2022-10-17T12:54:45;1.20;;;1.20;;
12818;SDS011;6474;53.474;9.894;2022-10-17T12:57:33;1.55;;;1.55;;
12818;SDS011;6474;53.474;9.894;2022-10-17T13:00:11;1.25;;;1.25;;
12818;SDS011;6474;53.474;9.894;2022-10-17T13:02:43;1.40;;;1.40;;
12818;SDS011;6474;53.474;9.894;2022-10-17T13:05:13;1.20;;;1.20;;
12818;SDS011;6474;53.474;9.894;2022-10-17T13:07:45;1.60;;;1.60;;
12818;SDS011;6474;53.474;9.894;2022-10-17T13:10:19;1.52;;;1.52;;
12818;SDS011;6474;53.474;9.894;2022-10-17T13:12:50;1.48;;;1.48;;
12818;SDS011;6474;53.474;9.894;2022-10-17T13:15:22;1.60;;;1.60;;
12818;SDS011;6474;53.474;9.894;2022-10-17T13:17:56;1.27;;;1.27;;
12818;SDS011;6474;53.474;9.894;2022-10-17T13:20:26;1.77;;;1.67;;
12818;SDS011;6474;53.474;9.894;2022-10-17T13:22:57;1.38;;;1.38;;
12818;SDS011;6474;53.474;9.894;2022-10-17T13:25:27;1.70;;;1.70;;
12818;SDS011;6474;53.474;9.894;2022-10-17T13:28:05;1.75;;;1.75;;
12818;SDS011;6474;53.474;9.894;2022-10-17T13:30:38;1.52;;;1.50;;
12818;SDS011;6474;53.474;9.894;2022-10-17T13:33:26;1.58;;;1.48;;
12818;SDS011;6474;53.474;9.894;2022-10-17T13:35:58;1.90;;;1.80;;
12818;SDS011;6474;53.474;9.894;2022-10-17T13:38:28;1.63;;;1.63;;
12818;SDS011;6474;53.474;9.894;2022-10-17T13:41:03;1.30;;;1.30;;
12818;SDS011;6474;53.474;9.894;2022-10-17T13:43:58;1.73;;;1.63;;
12818;SDS011;6474;53.474;9.894;2022-10-17T13:46:29;1.70;;;1.70;;
12818;SDS011;6474;53.474;9.894;2022-10-17T13:49:09;2.00;;;1.90;;
12818;SDS011;6474;53.474;9.894;2022-10-17T13:51:41;1.60;;;1.60;;
12818;SDS011;6474;53.474;9.894;2022-10-17T13:54:29;2.30;;;2.20;;
12818;SDS011;6474;53.474;9.894;2022-10-17T13:57:02;2.03;;;1.70;;
12818;SDS011;6474;53.474;9.894;2022-10-17T13:59:31;1.52;;;1.52;;
12818;SDS011;6474;53.474;9.894;2022-10-17T14:02:04;1.90;;;1.90;;
12818;SDS011;6474;53.474;9.894;2022-10-17T14:04:37;1.85;;;1.75;;
12818;SDS011;6474;53.474;9.894;2022-10-17T14:07:27;1.80;;;1.80;;
12818;SDS011;6474;53.474;9.894;2022-10-17T14:10:20;1.30;;;1.30;;
12818;SDS011;6474;53.474;9.894;2022-10-17T14:12:51;1.50;;;1.50;;
12818;SDS011;6474;53.474;9.894;2022-10-17T14:15:21;1.50;;;1.50;;
12818;SDS011;6474;53.474;9.894;2022-10-17T14:17:53;4.03;;;2.10;;
12818;SDS011;6474;53.474;9.894;2022-10-17T14:20:22;1.73;;;1.73;;
12818;SDS011;6474;53.474;9.894;2022-10-17T14:23:25;1.83;;;1.83;;
12818;SDS011;6474;53.474;9.894;2022-10-17T14:26:06;2.40;;;2.30;;
12818;SDS011;6474;53.474;9.894;2022-10-17T14:28:37;1.33;;;1.33;;
12818;SDS011;6474;53.474;9.894;2022-10-17T14:31:17;2.10;;;2.00;;
12818;SDS011;6474;53.474;9.894;2022-10-17T14:33:55;2.03;;;2.03;;
12818;SDS011;6474;53.474;9.894;2022-10-17T14:36:30;2.20;;;2.10;;
12818;SDS011;6474;53.474;9.894;2022-10-17T14:39:04;2.10;;;2.10;;
12818;SDS011;6474;53.474;9.894;2022-10-17T14:41:40;2.40;;;2.30;;
12818;SDS011;6474;53.474;9.894;2022-10-17T14:44:17;1.70;;;1.70;;
12818;SDS011;6474;53.474;9.894;2022-10-17T14:46:50;2.35;;;2.25;;
12818;SDS011;6474;53.474;9.894;2022-10-17T14:49:23;1.85;;;1.75;;
12818;SDS011;6474;53.474;9.894;2022-10-17T14:54:54;2.33;;;2.22;;
12818;SDS011;6474;53.474;9.894;2022-10-17T14:57:24;2.10;;;2.10;;
12818;SDS011;6474;53.474;9.894;2022-10-17T14:59:56;1.90;;;1.90;;
12818;SDS011;6474;53.474;9.894;2022-10-17T15:02:24;2.53;;;2.33;;
12818;SDS011;6474;53.474;9.894;2022-10-17T15:04:56;2.13;;;2.05;;
12818;SDS011;6474;53.474;9.894;2022-10-17T15:07:24;1.80;;;1.80;;
12818;SDS011;6474;53.474;9.894;2022-10-17T15:09:53;2.13;;;2.13;;
12818;SDS011;6474;53.474;9.894;2022-10-17T15:12:22;2.40;;;2.30;;
12818;SDS011;6474;53.474;9.894;2022-10-17T15:14:51;2.08;;;2.05;;
12818;SDS011;6474;53.474;9.894;2022-10-17T15:17:22;1.90;;;1.90;;
12818;SDS011;6474;53.474;9.894;2022-10-17T15:19:51;3.13;;;2.63;;
12818;SDS011;6474;53.474;9.894;2022-10-17T15:22:19;2.42;;;2.33;;
12818;SDS011;6474;53.474;9.894;2022-10-17T15:24:47;2.20;;;2.10;;
12818;SDS011;6474;53.474;9.894;2022-10-17T15:27:16;2.57;;;2.47;;
12818;SDS011;6474;53.474;9.894;2022-10-17T15:29:45;1.90;;;1.85;;
12818;SDS011;6474;53.474;9.894;2022-10-17T15:32:14;1.73;;;1.73;;
12818;SDS011;6474;53.474;9.894;2022-10-17T15:34:43;2.13;;;2.13;;
12818;SDS011;6474;53.474;9.894;2022-10-17T15:37:15;2.10;;;2.00;;
12818;SDS011;6474;53.474;9.894;2022-10-17T15:39:47;1.60;;;1.60;;
12818;SDS011;6474;53.474;9.894;2022-10-17T15:42:18;1.60;;;1.60;;
12818;SDS011;6474;53.474;9.894;2022-10-17T15:44:47;1.70;;;1.70;;
12818;SDS011;6474;53.474;9.894;2022-10-17T15:47:21;1.80;;;1.80;;